sensor_id;sensor_type;location;lat;lon;timestamp;P1;durP1;ratioP1;P2;durP2;ratioP2
28427;SDS011;15662;49.128;8.520;2022-07-11T00:02:05;1.42;;;1.30;;
28427;SDS011;15662;49.128;8.520;2022-07-11T00:04:35;1.33;;;1.30;;
28427;SDS011;15662;49.128;8.520;2022-07-11T00:07:03;1.15;;;1.15;;
28427;SDS011;15662;49.128;8.520;2022-07-11T00:09:32;1.30;;;1.20;;
28427;SDS011;15662;49.128;8.520;2022-07-11T00:12:00;1.50;;;1.40;;
28427;SDS011;15662;49.128;8.520;2022-07-11T00:14:29;1.17;;;1.15;;
28427;SDS011;15662;49.128;8.520;2022-07-11T00:16:57;1.83;;;1.27;;
28427;SDS011;15662;49.128;8.520;2022-07-11T00:19:25;1.50;;;1.40;;
28427;SDS011;15662;49.128;8.520;2022-07-11T00:21:53;1.10;;;1.10;;
28427;SDS011;15662;49.128;8.520;2022-07-11T00:24:21;1.20;;;1.10;;
28427;SDS011;15662;49.128;8.520;2022-07-11T00:26:52;1.40;;;1.30;;
28427;SDS011;15662;49.128;8.520;2022-07-11T00:29:20;3.08;;;2.88;;
28427;SDS011;15662;49.128;8.520;2022-07-11T00:31:48;2.35;;;2.20;;
28427;SDS011;15662;49.128;8.520;2022-07-11T00:34:16;1.50;;;1.40;;
28427;SDS011;15662;49.128;8.520;2022-07-11T00:36:44;2.25;;;1.30;;
28427;SDS011;15662;49.128;8.520;2022-07-11T00:39:12;1.85;;;1.75;;
28427;SDS011;15662;49.128;8.520;2022-07-11T00:41:40;1.23;;;1.13;;
28427;SDS011;15662;49.128;8.520;2022-07-11T00:44:08;1.30;;;1.20;;
28427;SDS011;15662;49.128;8.520;2022-07-11T00:46:36;1.58;;;1.23;;
28427;SDS011;15662;49.128;8.520;2022-07-11T00:49:04;1.95;;;1.35;;
28427;SDS011;15662;49.128;8.520;2022-07-11T00:51:32;1.65;;;1.58;;
28427;SDS011;15662;49.128;8.520;2022-07-11T00:54:00;2.45;;;1.63;;
28427;SDS011;15662;49.128;8.520;2022-07-11T00:56:29;6.85;;;6.13;;
28427;SDS011;15662;49.128;8.520;2022-07-11T00:58:58;5.30;;;4.90;;
28427;SDS011;15662;49.128;8.520;2022-07-11T01:01:26;3.63;;;3.20;;
28427;SDS011;15662;49.128;8.520;2022-07-11T01:03:54;2.00;;;1.90;;
28427;SDS011;15662;49.128;8.520;2022-07-11T01:06:22;1.50;;;1.50;;
28427;SDS011;15662;49.128;8.520;2022-07-11T01:08:50;2.22;;;2.00;;
28427;SDS011;15662;49.128;8.520;2022-07-11T01:11:18;2.38;;;1.95;;
28427;SDS011;15662;49.128;8.520;2022-07-11T01:13:48;1.40;;;1.35;;
28427;SDS011;15662;49.128;8.520;2022-07-11T01:16:17;1.50;;;1.40;;
28427;SDS011;15662;49.128;8.520;2022-07-11T01:18:53;1.73;;;1.63;;
28427;SDS011;15662;49.128;8.520;2022-07-11T01:21:28;1.70;;;1.60;;
28427;SDS011;15662;49.128;8.520;2022-07-11T01:24:00;2.65;;;2.45;;
28427;SDS011;15662;49.128;8.520;2022-07-11T01:26:29;4.57;;;3.70;;
28427;SDS011;15662;49.128;8.520;2022-07-11T01:29:07;4.45;;;4.10;;
28427;SDS011;15662;49.128;8.520;2022-07-11T01:31:39;4.50;;;4.13;;
28427;SDS011;15662;49.128;8.520;2022-07-11T01:34:11;3.30;;;3.10;;
28427;SDS011;15662;49.128;8.520;2022-07-11T01:36:39;2.70;;;2.50;;
28427;SDS011;15662;49.128;8.520;2022-07-11T01:39:09;2.28;;;2.15;;
28427;SDS011;15662;49.128;8.520;2022-07-11T01:41:38;1.92;;;1.83;;
28427;SDS011;15662;49.128;8.520;2022-07-11T01:44:05;1.80;;;1.70;;
28427;SDS011;15662;49.128;8.520;2022-07-11T01:46:33;1.60;;;1.50;;
28427;SDS011;15662;49.128;8.520;2022-07-11T01:49:01;1.58;;;1.42;;
28427;SDS011;15662;49.128;8.520;2022-07-11T01:51:29;2.75;;;1.50;;
28427;SDS011;15662;49.128;8.520;2022-07-11T01:53:57;1.20;;;1.20;;
28427;SDS011;15662;49.128;8.520;2022-07-11T01:56:25;1.52;;;1.50;;
28427;SDS011;15662;49.128;8.520;2022-07-11T01:58:59;1.45;;;1.35;;
28427;SDS011;15662;49.128;8.520;2022-07-11T02:01:28;1.70;;;1.60;;
28427;SDS011;15662;49.128;8.520;2022-07-11T02:03:56;1.52;;;1.52;;
28427;SDS011;15662;49.128;8.520;2022-07-11T02:06:24;1.48;;;1.38;;
28427;SDS011;15662;49.128;8.520;2022-07-11T02:08:52;1.52;;;1.42;;
28427;SDS011;15662;49.128;8.520;2022-07-11T02:11:20;1.60;;;1.55;;
28427;SDS011;15662;49.128;8.520;2022-07-11T02:13:48;3.00;;;1.67;;
28427;SDS011;15662;49.128;8.520;2022-07-11T02:16:17;1.75;;;1.63;;
28427;SDS011;15662;49.128;8.520;2022-07-11T02:18:45;1.90;;;1.80;;
28427;SDS011;15662;49.128;8.520;2022-07-11T02:21:13;1.80;;;1.70;;
28427;SDS011;15662;49.128;8.520;2022-07-11T02:23:41;1.80;;;1.70;;
28427;SDS011;15662;49.128;8.520;2022-07-11T02:26:09;1.42;;;1.40;;
28427;SDS011;15662;49.128;8.520;2022-07-11T02:28:38;3.90;;;1.70;;
28427;SDS011;15662;49.128;8.520;2022-07-11T02:31:07;1.58;;;1.58;;
28427;SDS011;15662;49.128;8.520;2022-07-11T02:33:35;1.70;;;1.60;;
28427;SDS011;15662;49.128;8.520;2022-07-11T02:36:03;1.73;;;1.63;;
28427;SDS011;15662;49.128;8.520;2022-07-11T02:38:31;1.60;;;1.50;;
28427;SDS011;15662;49.128;8.520;2022-07-11T02:41:00;1.73;;;1.65;;
28427;SDS011;15662;49.128;8.520;2022-07-11T02:43:28;1.80;;;1.70;;
28427;SDS011;15662;49.128;8.520;2022-07-11T02:45:56;1.70;;;1.60;;
28427;SDS011;15662;49.128;8.520;2022-07-11T02:48:24;12.25;;;2.20;;
28427;SDS011;15662;49.128;8.520;2022-07-11T02:50:52;1.63;;;1.52;;
28427;SDS011;15662;49.128;8.520;2022-07-11T02:53:20;1.92;;;1.80;;
28427;SDS011;15662;49.128;8.520;2022-07-11T02:55:49;1.58;;;1.48;;
28427;SDS011;15662;49.128;8.520;2022-07-11T02:58:16;1.80;;;1.70;;
28427;SDS011;15662;49.128;8.520;2022-07-11T03:00:44;1.85;;;1.75;;
28427;SDS011;15662;49.128;8.520;2022-07-11T03:03:12;1.58;;;1.58;;
28427;SDS011;15662;49.128;8.520;2022-07-11T03:05:40;1.58;;;1.48;;
28427;SDS011;15662;49.128;8.520;2022-07-11T03:08:08;1.83;;;1.73;;
28427;SDS011;15662;49.128;8.520;2022-07-11T03:10:36;1.90;;;1.80;;
28427;SDS011;15662;49.128;8.520;2022-07-11T03:13:06;1.85;;;1.75;;
28427;SDS011;15662;49.128;8.520;2022-07-11T03:15:33;1.73;;;1.63;;
28427;SDS011;15662;49.128;8.520;2022-07-11T03:18:01;1.70;;;1.60;;
28427;SDS011;15662;49.128;8.520;2022-07-11T03:20:29;1.60;;;1.50;;
28427;SDS011;15662;49.128;8.520;2022-07-11T03:22:57;1.75;;;1.65;;
28427;SDS011;15662;49.128;8.520;2022-07-11T03:25:25;1.92;;;1.65;;
28427;SDS011;15662;49.128;8.520;2022-07-11T03:27:53;1.80;;;1.70;;
28427;SDS011;15662;49.128;8.520;2022-07-11T03:30:21;1.67;;;1.67;;
28427;SDS011;15662;49.128;8.520;2022-07-11T03:32:49;1.70;;;1.60;;
28427;SDS011;15662;49.128;8.520;2022-07-11T03:35:17;1.77;;;1.67;;
28427;SDS011;15662;49.128;8.520;2022-07-11T03:38:04;1.80;;;1.70;;
28427;SDS011;15662;49.128;8.520;2022-07-11T03:40:32;1.77;;;1.67;;
28427;SDS011;15662;49.128;8.520;2022-07-11T03:43:00;1.70;;;1.60;;
28427;SDS011;15662;49.128;8.520;2022-07-11T03:45:28;1.65;;;1.52;;
28427;SDS011;15662;49.128;8.520;2022-07-11T03:47:56;1.60;;;1.50;;
28427;SDS011;15662;49.128;8.520;2022-07-11T03:50:24;2.03;;;1.80;;
28427;SDS011;15662;49.128;8.520;2022-07-11T03:52:52;3.60;;;1.80;;
28427;SDS011;15662;49.128;8.520;2022-07-11T03:55:20;2.47;;;1.90;;
28427;SDS011;15662;49.128;8.520;2022-07-11T03:57:48;3.70;;;1.85;;
28427;SDS011;15662;49.128;8.520;2022-07-11T04:00:16;1.67;;;1.58;;
28427;SDS011;15662;49.128;8.520;2022-07-11T04:02:47;2.53;;;1.88;;
28427;SDS011;15662;49.128;8.520;2022-07-11T04:05:15;2.05;;;1.70;;
28427;SDS011;15662;49.128;8.520;2022-07-11T04:07:44;3.90;;;2.08;;
28427;SDS011;15662;49.128;8.520;2022-07-11T04:10:11;1.92;;;1.80;;
28427;SDS011;15662;49.128;8.520;2022-07-11T04:12:39;2.50;;;2.00;;
28427;SDS011;15662;49.128;8.520;2022-07-11T04:15:07;2.00;;;1.90;;
28427;SDS011;15662;49.128;8.520;2022-07-11T04:17:37;2.03;;;1.92;;
28427;SDS011;15662;49.128;8.520;2022-07-11T04:20:05;2.33;;;2.13;;
28427;SDS011;15662;49.128;8.520;2022-07-11T04:22:34;1.70;;;1.60;;
28427;SDS011;15662;49.128;8.520;2022-07-11T04:25:02;2.25;;;2.15;;
28427;SDS011;15662;49.128;8.520;2022-07-11T04:27:30;1.90;;;1.80;;
28427;SDS011;15662;49.128;8.520;2022-07-11T04:30:06;2.10;;;2.00;;
28427;SDS011;15662;49.128;8.520;2022-07-11T04:32:35;1.92;;;1.83;;
28427;SDS011;15662;49.128;8.520;2022-07-11T04:35:04;2.33;;;1.83;;
28427;SDS011;15662;49.128;8.520;2022-07-11T04:37:32;1.90;;;1.80;;
28427;SDS011;15662;49.128;8.520;2022-07-11T04:40:00;2.15;;;1.95;;
28427;SDS011;15662;49.128;8.520;2022-07-11T04:42:28;3.33;;;1.85;;
28427;SDS011;15662;49.128;8.520;2022-07-11T04:44:56;3.55;;;1.90;;
28427;SDS011;15662;49.128;8.520;2022-07-11T04:47:24;1.83;;;1.73;;
28427;SDS011;15662;49.128;8.520;2022-07-11T04:49:52;3.08;;;2.00;;
28427;SDS011;15662;49.128;8.520;2022-07-11T04:52:28;1.98;;;1.88;;
28427;SDS011;15662;49.128;8.520;2022-07-11T04:54:56;1.90;;;1.80;;
28427;SDS011;15662;49.128;8.520;2022-07-11T04:57:25;3.00;;;1.70;;
28427;SDS011;15662;49.128;8.520;2022-07-11T04:59:54;2.00;;;1.90;;
28427;SDS011;15662;49.128;8.520;2022-07-11T05:02:22;2.35;;;2.13;;
28427;SDS011;15662;49.128;8.520;2022-07-11T05:04:50;3.20;;;2.10;;
28427;SDS011;15662;49.128;8.520;2022-07-11T05:07:18;2.17;;;2.08;;
28427;SDS011;15662;49.128;8.520;2022-07-11T05:09:47;2.08;;;1.88;;
28427;SDS011;15662;49.128;8.520;2022-07-11T05:12:15;1.80;;;1.70;;
28427;SDS011;15662;49.128;8.520;2022-07-11T05:14:43;1.75;;;1.65;;
28427;SDS011;15662;49.128;8.520;2022-07-11T05:17:11;2.10;;;2.00;;
28427;SDS011;15662;49.128;8.520;2022-07-11T05:19:39;2.13;;;1.85;;
28427;SDS011;15662;49.128;8.520;2022-07-11T05:22:07;1.90;;;1.80;;
28427;SDS011;15662;49.128;8.520;2022-07-11T05:24:35;1.70;;;1.60;;
28427;SDS011;15662;49.128;8.520;2022-07-11T05:27:04;3.65;;;1.77;;
28427;SDS011;15662;49.128;8.520;2022-07-11T05:29:32;2.13;;;2.03;;
28427;SDS011;15662;49.128;8.520;2022-07-11T05:32:00;2.00;;;1.90;;
28427;SDS011;15662;49.128;8.520;2022-07-11T05:34:28;2.05;;;1.83;;
28427;SDS011;15662;49.128;8.520;2022-07-11T05:36:56;1.85;;;1.75;;
28427;SDS011;15662;49.128;8.520;2022-07-11T05:39:24;2.28;;;1.90;;
28427;SDS011;15662;49.128;8.520;2022-07-11T05:41:52;1.85;;;1.48;;
28427;SDS011;15662;49.128;8.520;2022-07-11T05:44:20;2.90;;;1.90;;
28427;SDS011;15662;49.128;8.520;2022-07-11T05:46:48;1.98;;;1.88;;
28427;SDS011;15662;49.128;8.520;2022-07-11T05:49:16;1.67;;;1.58;;
28427;SDS011;15662;49.128;8.520;2022-07-11T05:51:44;2.00;;;1.90;;
28427;SDS011;15662;49.128;8.520;2022-07-11T05:54:12;1.98;;;1.88;;
28427;SDS011;15662;49.128;8.520;2022-07-11T05:56:40;3.00;;;1.88;;
28427;SDS011;15662;49.128;8.520;2022-07-11T05:59:08;2.63;;;1.88;;
28427;SDS011;15662;49.128;8.520;2022-07-11T06:01:36;2.13;;;1.90;;
28427;SDS011;15662;49.128;8.520;2022-07-11T06:04:04;1.88;;;1.65;;
28427;SDS011;15662;49.128;8.520;2022-07-11T06:06:32;2.20;;;1.80;;
28427;SDS011;15662;49.128;8.520;2022-07-11T06:09:00;2.13;;;2.03;;
28427;SDS011;15662;49.128;8.520;2022-07-11T06:11:28;2.50;;;2.10;;
28427;SDS011;15662;49.128;8.520;2022-07-11T06:13:57;2.25;;;1.90;;
28427;SDS011;15662;49.128;8.520;2022-07-11T06:16:27;7.13;;;2.10;;
28427;SDS011;15662;49.128;8.520;2022-07-11T06:18:55;3.75;;;2.08;;
28427;SDS011;15662;49.128;8.520;2022-07-11T06:21:24;1.70;;;1.60;;
28427;SDS011;15662;49.128;8.520;2022-07-11T06:23:53;2.38;;;1.80;;
28427;SDS011;15662;49.128;8.520;2022-07-11T06:26:21;3.25;;;1.77;;
28427;SDS011;15662;49.128;8.520;2022-07-11T06:28:50;1.92;;;1.70;;
28427;SDS011;15662;49.128;8.520;2022-07-11T06:31:18;2.53;;;1.88;;
28427;SDS011;15662;49.128;8.520;2022-07-11T06:33:46;2.13;;;1.98;;
28427;SDS011;15662;49.128;8.520;2022-07-11T06:36:26;2.05;;;1.77;;
28427;SDS011;15662;49.128;8.520;2022-07-11T06:38:54;1.90;;;1.80;;
28427;SDS011;15662;49.128;8.520;2022-07-11T06:41:22;3.75;;;1.88;;
28427;SDS011;15662;49.128;8.520;2022-07-11T06:43:50;1.95;;;1.63;;
28427;SDS011;15662;49.128;8.520;2022-07-11T06:46:19;3.33;;;2.10;;
28427;SDS011;15662;49.128;8.520;2022-07-11T06:48:47;3.83;;;1.90;;
28427;SDS011;15662;49.128;8.520;2022-07-11T06:51:15;2.50;;;1.80;;
28427;SDS011;15662;49.128;8.520;2022-07-11T06:53:43;3.78;;;3.30;;
28427;SDS011;15662;49.128;8.520;2022-07-11T06:56:11;4.50;;;2.70;;
28427;SDS011;15662;49.128;8.520;2022-07-11T06:58:39;3.67;;;1.90;;
28427;SDS011;15662;49.128;8.520;2022-07-11T07:01:07;1.67;;;1.58;;
28427;SDS011;15662;49.128;8.520;2022-07-11T07:03:36;1.73;;;1.58;;
28427;SDS011;15662;49.128;8.520;2022-07-11T07:06:05;1.67;;;1.58;;
28427;SDS011;15662;49.128;8.520;2022-07-11T07:08:33;3.53;;;1.52;;
28427;SDS011;15662;49.128;8.520;2022-07-11T07:11:01;1.58;;;1.48;;
28427;SDS011;15662;49.128;8.520;2022-07-11T07:13:34;1.50;;;1.40;;
28427;SDS011;15662;49.128;8.520;2022-07-11T07:16:02;2.15;;;1.50;;
28427;SDS011;15662;49.128;8.520;2022-07-11T07:18:34;1.42;;;1.40;;
28427;SDS011;15662;49.128;8.520;2022-07-11T07:21:09;1.90;;;1.70;;
28427;SDS011;15662;49.128;8.520;2022-07-11T07:23:51;2.70;;;1.65;;
28427;SDS011;15662;49.128;8.520;2022-07-11T07:26:19;1.73;;;1.63;;
28427;SDS011;15662;49.128;8.520;2022-07-11T07:28:47;1.58;;;1.48;;
28427;SDS011;15662;49.128;8.520;2022-07-11T07:31:15;3.80;;;1.40;;
28427;SDS011;15662;49.128;8.520;2022-07-11T07:33:44;1.40;;;1.30;;
28427;SDS011;15662;49.128;8.520;2022-07-11T07:36:13;2.05;;;1.38;;
28427;SDS011;15662;49.128;8.520;2022-07-11T07:38:43;2.33;;;2.10;;
28427;SDS011;15662;49.128;8.520;2022-07-11T07:41:14;2.25;;;1.88;;
28427;SDS011;15662;49.128;8.520;2022-07-11T07:43:43;4.63;;;1.50;;
28427;SDS011;15662;49.128;8.520;2022-07-11T07:46:12;4.65;;;2.45;;
28427;SDS011;15662;49.128;8.520;2022-07-11T07:48:41;1.92;;;1.48;;
28427;SDS011;15662;49.128;8.520;2022-07-11T07:51:10;2.30;;;1.95;;
28427;SDS011;15662;49.128;8.520;2022-07-11T07:53:39;2.50;;;2.30;;
28427;SDS011;15662;49.128;8.520;2022-07-11T07:56:07;3.53;;;2.40;;
28427;SDS011;15662;49.128;8.520;2022-07-11T07:58:35;4.15;;;2.50;;
28427;SDS011;15662;49.128;8.520;2022-07-11T08:01:04;1.80;;;1.70;;
28427;SDS011;15662;49.128;8.520;2022-07-11T08:03:52;4.47;;;2.10;;
28427;SDS011;15662;49.128;8.520;2022-07-11T08:06:20;2.85;;;2.17;;
28427;SDS011;15662;49.128;8.520;2022-07-11T08:08:49;1.83;;;1.65;;
28427;SDS011;15662;49.128;8.520;2022-07-11T08:11:18;2.42;;;1.98;;
28427;SDS011;15662;49.128;8.520;2022-07-11T08:14:08;1.70;;;1.60;;
28427;SDS011;15662;49.128;8.520;2022-07-11T08:16:36;1.70;;;1.60;;
28427;SDS011;15662;49.128;8.520;2022-07-11T08:19:05;1.88;;;1.67;;
28427;SDS011;15662;49.128;8.520;2022-07-11T08:21:33;1.70;;;1.60;;
28427;SDS011;15662;49.128;8.520;2022-07-11T08:24:03;1.88;;;1.60;;
28427;SDS011;15662;49.128;8.520;2022-07-11T08:26:32;2.63;;;1.40;;
28427;SDS011;15662;49.128;8.520;2022-07-11T08:29:02;2.35;;;1.65;;
28427;SDS011;15662;49.128;8.520;2022-07-11T08:31:32;4.00;;;1.88;;
28427;SDS011;15662;49.128;8.520;2022-07-11T08:34:01;2.10;;;1.90;;
28427;SDS011;15662;49.128;8.520;2022-07-11T08:36:29;2.28;;;1.50;;
28427;SDS011;15662;49.128;8.520;2022-07-11T08:39:02;1.52;;;1.40;;
28427;SDS011;15662;49.128;8.520;2022-07-11T08:41:31;2.10;;;1.33;;
28427;SDS011;15662;49.128;8.520;2022-07-11T08:44:00;2.60;;;1.60;;
28427;SDS011;15662;49.128;8.520;2022-07-11T08:46:29;1.33;;;1.30;;
28427;SDS011;15662;49.128;8.520;2022-07-11T08:48:58;1.17;;;1.08;;
28427;SDS011;15662;49.128;8.520;2022-07-11T08:51:30;1.20;;;1.20;;
28427;SDS011;15662;49.128;8.520;2022-07-11T08:53:58;1.95;;;1.30;;
28427;SDS011;15662;49.128;8.520;2022-07-11T08:56:29;2.83;;;1.67;;
28427;SDS011;15662;49.128;8.520;2022-07-11T08:58:59;3.13;;;1.80;;
28427;SDS011;15662;49.128;8.520;2022-07-11T09:01:28;1.60;;;1.50;;
28427;SDS011;15662;49.128;8.520;2022-07-11T09:04:01;1.42;;;1.33;;
28427;SDS011;15662;49.128;8.520;2022-07-11T09:06:30;3.38;;;1.88;;
28427;SDS011;15662;49.128;8.520;2022-07-11T09:08:58;1.52;;;1.42;;
28427;SDS011;15662;49.128;8.520;2022-07-11T09:11:28;1.45;;;1.33;;
28427;SDS011;15662;49.128;8.520;2022-07-11T09:14:27;1.38;;;1.27;;
28427;SDS011;15662;49.128;8.520;2022-07-11T09:17:03;1.17;;;1.10;;
28427;SDS011;15662;49.128;8.520;2022-07-11T09:19:34;2.08;;;1.98;;
28427;SDS011;15662;49.128;8.520;2022-07-11T09:22:11;2.35;;;1.65;;
28427;SDS011;15662;49.128;8.520;2022-07-11T09:25:06;2.22;;;1.35;;
28427;SDS011;15662;49.128;8.520;2022-07-11T09:27:59;1.20;;;1.10;;
28427;SDS011;15662;49.128;8.520;2022-07-11T09:30:32;1.27;;;1.10;;
28427;SDS011;15662;49.128;8.520;2022-07-11T09:33:08;1.70;;;1.60;;
28427;SDS011;15662;49.128;8.520;2022-07-11T09:35:39;1.83;;;1.42;;
28427;SDS011;15662;49.128;8.520;2022-07-11T09:38:10;1.50;;;1.40;;
28427;SDS011;15662;49.128;8.520;2022-07-11T09:40:44;1.50;;;1.40;;
28427;SDS011;15662;49.128;8.520;2022-07-11T09:43:15;1.10;;;1.10;;
28427;SDS011;15662;49.128;8.520;2022-07-11T09:45:52;1.48;;;1.38;;
28427;SDS011;15662;49.128;8.520;2022-07-11T09:48:32;2.95;;;1.30;;
28427;SDS011;15662;49.128;8.520;2022-07-11T09:51:00;1.63;;;1.20;;
28427;SDS011;15662;49.128;8.520;2022-07-11T09:56:00;1.25;;;1.10;;
28427;SDS011;15662;49.128;8.520;2022-07-11T09:58:29;1.27;;;1.20;;
28427;SDS011;15662;49.128;8.520;2022-07-11T10:00:59;1.08;;;1.00;;
28427;SDS011;15662;49.128;8.520;2022-07-11T10:03:27;1.30;;;1.20;;
28427;SDS011;15662;49.128;8.520;2022-07-11T10:06:16;1.95;;;1.30;;
28427;SDS011;15662;49.128;8.520;2022-07-11T10:08:44;1.25;;;1.20;;
28427;SDS011;15662;49.128;8.520;2022-07-11T10:11:12;1.42;;;1.30;;
28427;SDS011;15662;49.128;8.520;2022-07-11T10:13:41;1.50;;;1.20;;
28427;SDS011;15662;49.128;8.520;2022-07-11T10:16:20;1.58;;;1.10;;
28427;SDS011;15662;49.128;8.520;2022-07-11T10:18:52;0.90;;;0.90;;
28427;SDS011;15662;49.128;8.520;2022-07-11T10:22:19;1.35;;;1.20;;
28427;SDS011;15662;49.128;8.520;2022-07-11T10:28:00;1.10;;;1.00;;
28427;SDS011;15662;49.128;8.520;2022-07-11T10:33:28;1.88;;;1.70;;
28427;SDS011;15662;49.128;8.520;2022-07-11T10:35:57;1.33;;;1.23;;
28427;SDS011;15662;49.128;8.520;2022-07-11T10:38:26;1.23;;;1.10;;
28427;SDS011;15662;49.128;8.520;2022-07-11T10:40:55;0.95;;;0.95;;
28427;SDS011;15662;49.128;8.520;2022-07-11T10:43:32;2.65;;;0.93;;
28427;SDS011;15662;49.128;8.520;2022-07-11T10:51:47;1.05;;;1.00;;
28427;SDS011;15662;49.128;8.520;2022-07-11T11:01:28;0.80;;;0.80;;
28427;SDS011;15662;49.128;8.520;2022-07-11T11:03:48;1.05;;;0.85;;
28427;SDS011;15662;49.128;8.520;2022-07-11T11:06:17;1.00;;;0.90;;
28427;SDS011;15662;49.128;8.520;2022-07-11T11:08:47;1.00;;;0.70;;
28427;SDS011;15662;49.128;8.520;2022-07-11T11:14:16;0.70;;;0.70;;
28427;SDS011;15662;49.128;8.520;2022-07-11T11:16:42;0.85;;;0.80;;
28427;SDS011;15662;49.128;8.520;2022-07-11T11:22:19;1.13;;;0.95;;
28427;SDS011;15662;49.128;8.520;2022-07-11T11:24:53;0.98;;;0.98;;
28427;SDS011;15662;49.128;8.520;2022-07-11T11:27:59;2.42;;;0.82;;
28427;SDS011;15662;49.128;8.520;2022-07-11T11:30:31;1.75;;;1.10;;
28427;SDS011;15662;49.128;8.520;2022-07-11T11:33:00;1.10;;;1.00;;
28427;SDS011;15662;49.128;8.520;2022-07-11T11:35:40;5.18;;;1.30;;
28427;SDS011;15662;49.128;8.520;2022-07-11T11:38:09;3.20;;;1.17;;
28427;SDS011;15662;49.128;8.520;2022-07-11T11:40:46;1.15;;;1.10;;
28427;SDS011;15662;49.128;8.520;2022-07-11T11:43:20;1.35;;;1.20;;
28427;SDS011;15662;49.128;8.520;2022-07-11T11:45:49;2.05;;;0.90;;
28427;SDS011;15662;49.128;8.520;2022-07-11T11:48:30;1.25;;;1.00;;
28427;SDS011;15662;49.128;8.520;2022-07-11T11:51:07;0.80;;;0.80;;
28427;SDS011;15662;49.128;8.520;2022-07-11T11:53:42;2.05;;;1.00;;
28427;SDS011;15662;49.128;8.520;2022-07-11T11:59:08;0.85;;;0.82;;
28427;SDS011;15662;49.128;8.520;2022-07-11T12:01:45;0.75;;;0.75;;
28427;SDS011;15662;49.128;8.520;2022-07-11T12:04:16;1.08;;;1.00;;
28427;SDS011;15662;49.128;8.520;2022-07-11T12:06:45;1.60;;;1.15;;
28427;SDS011;15662;49.128;8.520;2022-07-11T12:09:18;1.98;;;1.27;;
28427;SDS011;15662;49.128;8.520;2022-07-11T12:12:09;1.33;;;1.00;;
28427;SDS011;15662;49.128;8.520;2022-07-11T12:14:56;1.30;;;0.93;;
28427;SDS011;15662;49.128;8.520;2022-07-11T12:17:25;1.25;;;0.90;;
28427;SDS011;15662;49.128;8.520;2022-07-11T12:19:56;1.83;;;1.00;;
28427;SDS011;15662;49.128;8.520;2022-07-11T12:22:24;1.50;;;1.15;;
28427;SDS011;15662;49.128;8.520;2022-07-11T12:24:53;0.80;;;0.80;;
28427;SDS011;15662;49.128;8.520;2022-07-11T12:27:23;2.22;;;1.00;;
28427;SDS011;15662;49.128;8.520;2022-07-11T12:29:52;2.47;;;1.03;;
28427;SDS011;15662;49.128;8.520;2022-07-11T12:32:21;1.55;;;1.08;;
28427;SDS011;15662;49.128;8.520;2022-07-11T12:34:49;1.20;;;1.10;;
28427;SDS011;15662;49.128;8.520;2022-07-11T12:37:35;0.82;;;0.80;;
28427;SDS011;15662;49.128;8.520;2022-07-11T12:40:05;1.48;;;0.70;;
28427;SDS011;15662;49.128;8.520;2022-07-11T12:42:42;1.55;;;0.90;;
28427;SDS011;15662;49.128;8.520;2022-07-11T12:45:14;1.38;;;0.65;;
28427;SDS011;15662;49.128;8.520;2022-07-11T12:47:49;0.75;;;0.60;;
28427;SDS011;15662;49.128;8.520;2022-07-11T12:50:25;0.95;;;0.68;;
28427;SDS011;15662;49.128;8.520;2022-07-11T12:52:56;2.25;;;0.80;;
28427;SDS011;15662;49.128;8.520;2022-07-11T12:55:30;1.20;;;0.70;;
28427;SDS011;15662;49.128;8.520;2022-07-11T13:00:36;1.35;;;0.70;;
28427;SDS011;15662;49.128;8.520;2022-07-11T13:03:09;0.70;;;0.65;;
28427;SDS011;15662;49.128;8.520;2022-07-11T13:05:57;0.60;;;0.60;;
28427;SDS011;15662;49.128;8.520;2022-07-11T13:08:26;0.70;;;0.70;;
28427;SDS011;15662;49.128;8.520;2022-07-11T13:13:48;0.70;;;0.70;;
28427;SDS011;15662;49.128;8.520;2022-07-11T13:16:17;0.60;;;0.60;;
28427;SDS011;15662;49.128;8.520;2022-07-11T13:18:46;1.10;;;0.70;;
28427;SDS011;15662;49.128;8.520;2022-07-11T13:21:16;1.75;;;0.70;;
28427;SDS011;15662;49.128;8.520;2022-07-11T13:23:45;0.85;;;0.85;;
28427;SDS011;15662;49.128;8.520;2022-07-11T13:26:14;1.67;;;0.75;;
28427;SDS011;15662;49.128;8.520;2022-07-11T13:28:42;2.13;;;1.13;;
28427;SDS011;15662;49.128;8.520;2022-07-11T13:31:10;1.45;;;0.90;;
28427;SDS011;15662;49.128;8.520;2022-07-11T13:33:43;0.80;;;0.80;;
28427;SDS011;15662;49.128;8.520;2022-07-11T13:36:11;0.70;;;0.70;;
28427;SDS011;15662;49.128;8.520;2022-07-11T13:38:39;0.90;;;0.90;;
28427;SDS011;15662;49.128;8.520;2022-07-11T13:41:07;1.15;;;1.00;;
28427;SDS011;15662;49.128;8.520;2022-07-11T13:43:43;1.23;;;1.00;;
28427;SDS011;15662;49.128;8.520;2022-07-11T13:46:12;2.17;;;1.00;;
28427;SDS011;15662;49.128;8.520;2022-07-11T13:48:40;0.98;;;0.95;;
28427;SDS011;15662;49.128;8.520;2022-07-11T13:51:10;1.33;;;0.90;;
28427;SDS011;15662;49.128;8.520;2022-07-11T13:53:38;1.35;;;1.10;;
28427;SDS011;15662;49.128;8.520;2022-07-11T13:56:07;0.82;;;0.82;;
28427;SDS011;15662;49.128;8.520;2022-07-11T13:58:35;1.02;;;0.93;;
28427;SDS011;15662;49.128;8.520;2022-07-11T14:01:04;1.13;;;1.00;;
28427;SDS011;15662;49.128;8.520;2022-07-11T14:03:33;1.90;;;1.80;;
28427;SDS011;15662;49.128;8.520;2022-07-11T14:06:01;1.30;;;1.23;;
28427;SDS011;15662;49.128;8.520;2022-07-11T14:08:29;1.20;;;1.08;;
28427;SDS011;15662;49.128;8.520;2022-07-11T14:10:59;1.10;;;1.10;;
28427;SDS011;15662;49.128;8.520;2022-07-11T14:13:27;1.88;;;1.02;;
28427;SDS011;15662;49.128;8.520;2022-07-11T14:15:55;3.55;;;1.00;;
28427;SDS011;15662;49.128;8.520;2022-07-11T14:18:32;1.55;;;1.00;;
28427;SDS011;15662;49.128;8.520;2022-07-11T14:21:00;1.23;;;1.13;;
28427;SDS011;15662;49.128;8.520;2022-07-11T14:23:28;1.13;;;0.93;;
28427;SDS011;15662;49.128;8.520;2022-07-11T14:25:58;1.17;;;1.00;;
28427;SDS011;15662;49.128;8.520;2022-07-11T14:28:26;1.30;;;1.20;;
28427;SDS011;15662;49.128;8.520;2022-07-11T14:30:56;1.45;;;1.38;;
28427;SDS011;15662;49.128;8.520;2022-07-11T14:33:26;1.50;;;1.40;;
28427;SDS011;15662;49.128;8.520;2022-07-11T14:35:59;2.50;;;1.50;;
28427;SDS011;15662;49.128;8.520;2022-07-11T14:38:27;2.15;;;1.30;;
28427;SDS011;15662;49.128;8.520;2022-07-11T14:40:56;1.63;;;1.40;;
28427;SDS011;15662;49.128;8.520;2022-07-11T14:43:24;1.70;;;1.30;;
28427;SDS011;15662;49.128;8.520;2022-07-11T14:45:52;2.85;;;1.50;;
28427;SDS011;15662;49.128;8.520;2022-07-11T14:48:21;1.48;;;1.38;;
28427;SDS011;15662;49.128;8.520;2022-07-11T14:50:49;1.65;;;1.55;;
28427;SDS011;15662;49.128;8.520;2022-07-11T14:53:17;1.90;;;1.80;;
28427;SDS011;15662;49.128;8.520;2022-07-11T14:55:45;2.10;;;1.90;;
28427;SDS011;15662;49.128;8.520;2022-07-11T14:58:33;1.73;;;1.63;;
28427;SDS011;15662;49.128;8.520;2022-07-11T15:01:02;3.80;;;1.92;;
28427;SDS011;15662;49.128;8.520;2022-07-11T15:03:30;2.40;;;1.80;;
28427;SDS011;15662;49.128;8.520;2022-07-11T15:06:08;2.00;;;1.88;;
28427;SDS011;15662;49.128;8.520;2022-07-11T15:08:39;13.65;;;2.42;;
28427;SDS011;15662;49.128;8.520;2022-07-11T15:11:27;3.90;;;1.58;;
28427;SDS011;15662;49.128;8.520;2022-07-11T15:14:14;2.80;;;1.80;;
28427;SDS011;15662;49.128;8.520;2022-07-11T15:16:43;1.80;;;1.70;;
28427;SDS011;15662;49.128;8.520;2022-07-11T15:19:13;1.80;;;1.70;;
28427;SDS011;15662;49.128;8.520;2022-07-11T15:21:41;2.00;;;1.90;;
28427;SDS011;15662;49.128;8.520;2022-07-11T15:24:09;1.77;;;1.67;;
28427;SDS011;15662;49.128;8.520;2022-07-11T15:26:37;1.77;;;1.67;;
28427;SDS011;15662;49.128;8.520;2022-07-11T15:29:05;1.70;;;1.60;;
28427;SDS011;15662;49.128;8.520;2022-07-11T15:31:35;1.73;;;1.63;;
28427;SDS011;15662;49.128;8.520;2022-07-11T15:34:04;1.80;;;1.70;;
28427;SDS011;15662;49.128;8.520;2022-07-11T15:36:32;1.50;;;1.40;;
28427;SDS011;15662;49.128;8.520;2022-07-11T15:39:01;2.72;;;1.50;;
28427;SDS011;15662;49.128;8.520;2022-07-11T15:41:29;2.47;;;1.55;;
28427;SDS011;15662;49.128;8.520;2022-07-11T15:43:58;1.70;;;1.60;;